Time;durP1;ratioP1;P1;durP2;ratioP2;P2;SDS_P1;SDS_P2;PMS_P1;PMS_P2;Temp;Humidity;BMP_temperature;BMP_pressure;BME280_temperature;BME280_humidity;BME280_pressure;Samples;Min_cycle;Max_cycle;Signal;HPM_P1;HPM_P2
2021/01/21 00:02:22;;;;;;;16.33;11.20;;;6.30;69.70;;;;;;4904088;28;92063;-75
2021/01/21 00:04:48;;;;;;;15.53;11.20;;;6.30;69.40;;;;;;4903033;28;96013;-75
2021/01/21 00:07:14;;;;;;;14.60;9.97;;;6.30;69.30;;;;;;4887351;28;96560;-74
2021/01/21 00:09:39;;;;;;;15.23;10.70;;;6.30;69.20;;;;;;4903878;28;91806;-75
2021/01/21 00:12:06;;;;;;;14.83;9.87;;;6.30;69.40;;;;;;4904778;28;91039;-75
2021/01/21 00:14:32;;;;;;;16.43;9.87;;;6.30;69.40;;;;;;4888485;28;96809;-75
2021/01/21 00:16:58;;;;;;;14.73;10.47;;;6.20;69.60;;;;;;4921302;28;93323;-75
2021/01/21 00:19:23;;;;;;;15.53;9.97;;;6.20;69.60;;;;;;4903592;28;92900;-75
2021/01/21 00:21:49;;;;;;;13.70;9.30;;;6.20;69.70;;;;;;4902972;28;92147;-75
2021/01/21 00:24:15;;;;;;;14.90;10.47;;;6.20;69.50;;;;;;4888344;28;96273;-75
2021/01/21 00:26:41;;;;;;;15.77;9.53;;;6.20;69.70;;;;;;4902694;28;96198;-75
2021/01/21 00:29:07;;;;;;;14.13;8.87;;;6.30;69.40;;;;;;4904769;28;92440;-74
2021/01/21 00:31:33;;;;;;;15.37;9.47;;;6.30;69.10;;;;;;4888497;28;92219;-74
2021/01/21 00:33:59;;;;;;;18.87;9.87;;;6.30;68.90;;;;;;4903446;28;97024;-74
2021/01/21 00:36:24;;;;;;;13.73;9.80;;;6.40;68.80;;;;;;4904652;28;92323;-75
2021/01/21 00:38:50;;;;;;;15.00;9.20;;;6.40;68.80;;;;;;4903774;28;92265;-74
2021/01/21 00:41:16;;;;;;;18.33;9.77;;;6.30;68.50;;;;;;4904017;28;92381;-75
2021/01/21 00:43:43;;;;;;;14.40;9.23;;;6.30;68.70;;;;;;4902966;28;94592;-75
2021/01/21 00:46:12;;;;;;;13.07;8.80;;;6.30;68.90;;;;;;4887706;28;97588;-75
2021/01/21 00:48:38;;;;;;;14.07;9.60;;;6.30;69.00;;;;;;4903070;28;92530;-75
2021/01/21 00:51:04;;;;;;;15.67;10.13;;;6.20;69.30;;;;;;4904032;28;92140;-74
2021/01/21 00:53:30;;;;;;;14.10;9.27;;;6.20;70.30;;;;;;4903175;28;97244;-75
2021/01/21 00:55:56;;;;;;;14.07;9.97;;;6.10;69.90;;;;;;4920791;28;92819;-74
2021/01/21 00:58:22;;;;;;;14.93;9.93;;;6.10;70.00;;;;;;4887506;28;91903;-74
2021/01/21 01:00:48;;;;;;;17.30;10.50;;;6.00;70.30;;;;;;4887776;28;91505;-75
2021/01/21 01:03:16;;;;;;;17.07;10.50;;;6.00;70.40;;;;;;4887328;28;96793;-75
2021/01/21 01:05:43;;;;;;;18.13;11.20;;;6.00;70.50;;;;;;4886382;28;96664;-75
2021/01/21 01:08:10;;;;;;;16.13;11.03;;;5.90;70.60;;;;;;4903111;28;92937;-75
2021/01/21 01:10:36;;;;;;;16.17;10.13;;;5.90;71.20;;;;;;4887322;28;92604;-75
2021/01/21 01:13:13;;;;;;;16.43;9.50;;;5.90;70.80;;;;;;4902881;28;97022;-75
2021/01/21 01:15:39;;;;;;;15.87;9.83;;;5.80;71.00;;;;;;4887048;28;96755;-74
2021/01/21 01:18:05;;;;;;;15.17;9.93;;;5.80;71.10;;;;;;4886696;28;92007;-74
2021/01/21 01:20:31;;;;;;;14.67;9.57;;;5.80;71.10;;;;;;4887378;28;92106;-75
2021/01/21 01:22:57;;;;;;;15.63;11.10;;;5.80;71.30;;;;;;4886705;28;96265;-75
2021/01/21 01:25:23;;;;;;;18.00;10.77;;;5.80;71.30;;;;;;4903361;28;93018;-74
2021/01/21 01:27:49;;;;;;;19.93;10.13;;;5.80;71.40;;;;;;4902441;28;92239;-74
2021/01/21 01:30:17;;;;;;;15.17;10.80;;;5.80;71.60;;;;;;4886964;28;92114;-75
2021/01/21 01:32:48;;;;;;;15.43;9.93;;;5.80;71.50;;;;;;4901239;28;94838;-74
2021/01/21 01:35:14;;;;;;;15.70;10.37;;;5.80;71.60;;;;;;4902874;28;97234;-75
2021/01/21 01:37:44;;;;;;;16.40;9.93;;;5.80;71.70;;;;;;4886298;28;92138;-75
2021/01/21 01:40:16;;;;;;;15.73;10.63;;;5.80;71.40;;;;;;4888445;28;92177;-75
2021/01/21 01:42:46;;;;;;;17.63;10.20;;;5.80;71.50;;;;;;4902575;28;93723;-75
2021/01/21 01:45:16;;;;;;;14.77;10.30;;;5.80;71.70;;;;;;4902397;28;96529;-75
2021/01/21 01:47:46;;;;;;;18.47;11.07;;;5.80;71.90;;;;;;4886345;28;91986;-75
2021/01/21 01:50:25;;;;;;;16.57;10.80;;;5.80;72.10;;;;;;4902988;28;91317;-74
2021/01/21 01:52:54;;;;;;;18.53;11.33;;;5.70;72.50;;;;;;4901449;28;94582;-74
2021/01/21 01:55:23;;;;;;;18.30;11.63;;;5.60;72.70;;;;;;4886846;28;96050;-75
2021/01/21 01:58:02;;;;;;;18.70;10.63;;;5.60;72.80;;;;;;4886912;28;92920;-75
2021/01/21 02:00:40;;;;;;;16.90;10.60;;;5.60;73.00;;;;;;4904469;28;92293;-74
2021/01/21 02:03:06;;;;;;;18.87;11.37;;;5.60;73.00;;;;;;4885640;28;96530;-75
2021/01/21 02:05:38;;;;;;;21.40;11.37;;;5.60;73.00;;;;;;4902122;28;95480;-75
2021/01/21 02:08:05;;;;;;;18.63;11.03;;;5.60;73.00;;;;;;4902184;28;91996;-75
2021/01/21 02:10:32;;;;;;;17.77;10.50;;;5.60;72.90;;;;;;4919887;28;92078;-75
2021/01/21 02:13:43;;;;;;;18.57;10.80;;;5.60;72.70;;;;;;4888033;28;96627;-74
2021/01/21 02:16:25;;;;;;;16.87;10.73;;;5.60;72.70;;;;;;4902302;28;93162;-74
2021/01/21 02:18:52;;;;;;;;;;;5.60;72.50;;;;;;4901498;28;92291;-75
2021/01/21 02:21:43;;;;;;;19.07;10.67;;;5.70;72.40;;;;;;4904163;28;92088;-74
2021/01/21 02:24:34;;;;;;;19.50;10.97;;;5.70;72.20;;;;;;4900723;28;97268;-75
2021/01/21 02:27:04;;;;;;;14.73;9.38;;;5.70;72.10;;;;;;4900396;28;95242;-75
2021/01/21 02:29:37;;;;;;;16.87;9.80;;;5.80;71.80;;;;;;4887087;28;92085;-74
2021/01/21 02:32:07;;;;;;;16.83;9.90;;;5.80;71.60;;;;;;4886251;28;92350;-75
2021/01/21 02:35:01;;;;;;;16.53;9.83;;;5.80;71.40;;;;;;4902344;28;97062;-75
2021/01/21 02:37:28;;;;;;;14.67;9.13;;;5.80;71.20;;;;;;4902387;28;96543;-74
2021/01/21 02:40:03;;;;;;;11.53;8.10;;;5.90;71.30;;;;;;4901956;28;92399;-75
2021/01/21 02:42:47;;;;;;;13.17;8.13;;;5.90;71.30;;;;;;4904389;28;91103;-74
2021/01/21 02:45:19;;;;;;;11.87;8.10;;;5.90;71.50;;;;;;4902134;28;96667;-73
2021/01/21 02:47:51;;;;;;;12.02;7.55;;;5.90;71.50;;;;;;4901595;28;96058;-73
2021/01/21 02:50:18;;;;;;;12.57;7.77;;;5.90;71.50;;;;;;4886328;28;92825;-73
2021/01/21 02:53:01;;;;;;;11.53;8.13;;;5.90;71.40;;;;;;4919566;28;92303;-73
2021/01/21 02:55:46;;;;;;;13.87;7.70;;;6.00;71.50;;;;;;4902123;28;96749;-73
2021/01/21 02:58:32;;;;;;;12.17;8.37;;;6.00;71.70;;;;;;4902334;28;93540;-72
2021/01/21 03:01:04;;;;;;;10.40;7.20;;;6.00;72.50;;;;;;4886334;28;92514;-73
2021/01/21 03:03:32;;;;;;;12.23;7.50;;;6.00;72.10;;;;;;4902214;28;92178;-73
2021/01/21 03:06:02;;;;;;;13.60;8.00;;;5.90;72.30;;;;;;4901593;28;93160;-72
2021/01/21 03:08:32;;;;;;;10.85;8.27;;;5.90;72.40;;;;;;4886915;28;96440;-72
2021/01/21 03:11:08;;;;;;;11.50;7.67;;;6.00;72.30;;;;;;4901617;28;91823;-73
2021/01/21 03:13:34;;;;;;;13.70;9.43;;;6.00;72.10;;;;;;4902499;28;92090;-73
2021/01/21 03:16:00;;;;;;;16.40;9.03;;;6.00;72.20;;;;;;4900171;28;95692;-73
2021/01/21 03:18:26;;;;;;;14.83;10.40;;;5.90;72.40;;;;;;4901173;28;96762;-72
2021/01/21 03:20:55;;;;;;;17.60;11.57;;;5.90;72.50;;;;;;4885151;28;91971;-73
2021/01/21 03:23:31;;;;;;;18.57;11.80;;;5.90;72.40;;;;;;4901567;28;92082;-72
2021/01/21 03:26:04;;;;;;;18.40;11.30;;;5.80;72.60;;;;;;4900377;28;93083;-73
2021/01/21 03:28:30;;;;;;;18.50;11.33;;;5.70;73.20;;;;;;4901126;28;96409;-73
2021/01/21 03:30:56;;;;;;;18.43;11.70;;;5.70;73.70;;;;;;4900636;28;91981;-73
2021/01/21 03:33:22;;;;;;;17.03;11.30;;;5.60;74.00;;;;;;4901651;28;91369;-72
2021/01/21 03:35:52;;;;;;;21.03;12.03;;;5.50;74.50;;;;;;4900414;28;97251;-73
2021/01/21 03:38:20;;;;;;;17.37;10.97;;;5.40;74.70;;;;;;4900928;28;95166;-73
2021/01/21 03:41:09;;;;;;;19.13;12.10;;;5.40;75.50;;;;;;4903121;28;93076;-72
2021/01/21 03:43:38;;;;;;;20.10;13.40;;;5.40;74.90;;;;;;4904256;28;92205;-72
2021/01/21 03:46:12;;;;;;;18.27;12.07;;;5.50;74.50;;;;;;4888671;28;96855;-73
2021/01/21 03:48:38;;;;;;;17.30;11.80;;;5.50;74.20;;;;;;4904492;28;93047;-72
2021/01/21 03:51:36;;;;;;;15.03;10.97;;;5.50;74.20;;;;;;4898263;28;92094;-72
2021/01/21 03:54:16;;;;;;;17.97;11.90;;;5.60;74.20;;;;;;4889846;28;92123;-73
2021/01/21 03:56:42;;;;;;;20.13;11.53;;;5.70;73.60;;;;;;4904083;28;97230;-72
2021/01/21 03:59:08;;;;;;;19.30;12.03;;;5.80;73.20;;;;;;4887679;28;96100;-73
2021/01/21 04:01:41;;;;;;;18.83;12.53;;;5.80;72.90;;;;;;4904331;28;92131;-73
2021/01/21 04:04:07;;;;;;;19.07;11.37;;;5.80;72.70;;;;;;4887523;28;92432;-73
2021/01/21 04:06:33;;;;;;;19.13;11.43;;;5.80;72.80;;;;;;4902774;28;97432;-73
2021/01/21 04:09:04;;;;;;;20.83;12.23;;;5.90;72.30;;;;;;4920918;28;93486;-72
2021/01/21 04:11:38;;;;;;;18.23;11.27;;;5.90;72.40;;;;;;4889434;28;91910;-73
2021/01/21 04:14:08;;;;;;;16.40;11.80;;;5.90;72.50;;;;;;4887937;28;92207;-72
2021/01/21 04:16:37;;;;;;;17.90;12.47;;;6.00;72.40;;;;;;4888126;28;97093;-72
2021/01/21 04:19:03;;;;;;;20.10;13.07;;;5.90;72.40;;;;;;4902627;28;96362;-73
2021/01/21 04:21:29;;;;;;;20.70;12.03;;;5.80;72.90;;;;;;4903940;28;92380;-73
2021/01/21 04:24:02;;;;;;;17.23;12.20;;;5.80;73.60;;;;;;4903485;28;91297;-73
2021/01/21 04:26:51;;;;;;;20.73;12.47;;;5.70;73.80;;;;;;4920852;28;93578;-73
2021/01/21 04:29:22;;;;;;;21.87;13.00;;;5.70;73.70;;;;;;4888402;28;96152;-73
2021/01/21 04:31:52;;;;;;;19.07;12.43;;;5.70;74.00;;;;;;4888004;28;92850;-73
2021/01/21 04:34:22;;;;;;;18.63;12.37;;;5.70;74.20;;;;;;4888637;28;92076;-72
2021/01/21 04:36:50;;;;;;;21.70;13.20;;;5.80;73.90;;;;;;4903452;28;95725;-74
2021/01/21 04:39:35;;;;;;;16.50;11.67;;;5.80;73.50;;;;;;4890205;28;95939;-73
2021/01/21 04:42:02;;;;;;;20.17;11.63;;;5.90;73.40;;;;;;4902909;28;92169;-73
2021/01/21 04:44:34;;;;;;;18.20;11.57;;;5.90;73.40;;;;;;4903516;28;92293;-73
2021/01/21 04:47:07;;;;;;;20.93;12.50;;;5.90;73.50;;;;;;4902455;28;96664;-73
2021/01/21 04:49:48;;;;;;;21.93;13.13;;;5.90;73.40;;;;;;4889749;28;93050;-72
2021/01/21 04:52:17;;;;;;;22.47;13.80;;;5.90;73.50;;;;;;4902796;28;92108;-72
2021/01/21 04:54:52;;;;;;;21.60;13.47;;;5.80;73.70;;;;;;4887466;28;92160;-73
2021/01/21 04:57:33;;;;;;;21.27;12.83;;;5.80;74.00;;;;;;4902151;28;97029;-72
2021/01/21 05:00:13;;;;;;;19.90;12.63;;;5.70;74.30;;;;;;4902370;28;96501;-73
2021/01/21 05:02:49;;;;;;;19.20;11.83;;;5.60;74.70;;;;;;4903435;28;92043;-72
2021/01/21 05:05:37;;;;;;;21.13;12.90;;;5.60;75.40;;;;;;4903483;28;92385;-73
2021/01/21 05:08:05;;;;;;;16.50;11.87;;;5.50;75.80;;;;;;4902274;28;95070;-73
2021/01/21 05:10:35;;;;;;;18.63;11.80;;;5.50;76.30;;;;;;4903037;28;95933;-72
2021/01/21 05:13:10;;;;;;;18.67;11.73;;;5.40;76.60;;;;;;4902532;28;92399;-72
2021/01/21 05:15:54;;;;;;;25.13;12.27;;;5.30;76.90;;;;;;4903712;28;91385;-73
2021/01/21 05:18:53;;;;;;;18.47;11.73;;;5.40;77.00;;;;;;4902352;28;95779;-73
2021/01/21 05:21:42;;;;;;;22.13;12.60;;;5.40;77.20;;;;;;4920725;28;92074;-72
2021/01/21 05:24:26;;;;;;;17.63;11.50;;;5.40;77.30;;;;;;4920597;28;92913;-73
2021/01/21 05:27:22;;;;;;;19.00;11.73;;;5.40;77.00;;;;;;4894183;28;92062;-72
2021/01/21 05:30:05;;;;;;;18.90;11.80;;;5.40;77.20;;;;;;4901917;28;96582;-73
2021/01/21 05:32:32;;;;;;;19.87;11.13;;;5.40;77.50;;;;;;4886706;28;96095;-73
2021/01/21 05:35:17;;;;;;;21.50;12.53;;;5.50;77.40;;;;;;4901910;28;92179;-73
2021/01/21 05:37:54;;;;;;;21.10;11.97;;;5.60;77.10;;;;;;4903054;28;92180;-72
2021/01/21 05:40:51;;;;;;;18.63;12.13;;;5.60;77.40;;;;;;4889876;28;94474;-73
2021/01/21 05:43:47;;;;;;;18.87;10.50;;;5.60;77.60;;;;;;4905704;28;94413;-73
2021/01/21 05:46:23;;;;;;;14.80;9.77;;;5.60;78.20;;;;;;4887672;28;92080;-73
2021/01/21 05:48:50;;;;;;;14.87;8.97;;;5.70;78.50;;;;;;4887818;28;92130;-73
2021/01/21 05:51:18;;;;;;;10.77;7.27;;;5.80;78.60;;;;;;4901875;28;97503;-73
2021/01/21 05:53:48;;;;;;;9.60;6.60;;;5.90;78.70;;;;;;4903577;28;94238;-75
2021/01/21 05:56:32;;;;;;;12.50;6.53;;;6.00;78.60;;;;;;4889784;28;92144;-75
2021/01/21 05:59:15;;;;;;;10.40;6.50;;;6.10;78.30;;;;;;4888553;28;92017;-75
2021/01/21 06:01:42;;;;;;;13.30;6.50;;;6.20;77.90;;;;;;4902825;28;95961;-74
2021/01/21 06:04:17;;;;;;;13.83;7.07;;;6.30;77.40;;;;;;4919013;28;93041;-75
2021/01/21 06:06:44;;;;;;;10.10;6.80;;;6.30;77.20;;;;;;4887237;28;92049;-75
2021/01/21 06:09:15;;;;;;;10.00;6.67;;;6.40;76.80;;;;;;4902551;28;91496;-75
2021/01/21 06:11:44;;;;;;;10.20;7.05;;;6.40;76.70;;;;;;4903132;28;93783;-74
2021/01/21 06:14:11;;;;;;;13.63;8.17;;;6.40;76.40;;;;;;4901948;28;92881;-75
2021/01/21 06:16:40;;;;;;;15.53;8.30;;;6.40;76.30;;;;;;4902481;28;93431;-75
2021/01/21 06:19:06;;;;;;;13.03;8.23;;;6.40;76.40;;;;;;4918878;28;92106;-74
2021/01/21 06:21:56;;;;;;;15.37;8.73;;;6.30;76.40;;;;;;4902640;28;96242;-74
2021/01/21 06:24:45;;;;;;;15.03;9.10;;;6.40;76.40;;;;;;4902524;28;96568;-75
2021/01/21 06:27:14;;;;;;;15.00;8.47;;;6.30;76.70;;;;;;4919576;28;92212;-75
2021/01/21 06:29:45;;;;;;;14.97;8.67;;;6.20;77.30;;;;;;4920669;28;92112;-75
2021/01/21 06:32:14;;;;;;;13.95;9.55;;;6.20;77.80;;;;;;4889726;28;94627;-75
2021/01/21 06:34:41;;;;;;;14.17;8.77;;;6.00;78.20;;;;;;4867814;28;96462;-74
2021/01/21 06:37:21;;;;;;;14.53;8.83;;;6.10;78.10;;;;;;4878176;28;92137;-75
2021/01/21 06:40:05;;;;;;;17.63;9.47;;;6.20;77.70;;;;;;4887824;28;91964;-75
2021/01/21 06:42:44;;;;;;;14.60;8.70;;;6.20;77.60;;;;;;4885778;28;98016;-74
2021/01/21 06:45:10;;;;;;;14.63;9.60;;;6.20;77.60;;;;;;4885675;28;97487;-76
2021/01/21 06:47:36;;;;;;;14.37;9.57;;;6.20;77.90;;;;;;4920712;28;91930;-74
2021/01/21 06:50:05;;;;;;;13.77;8.87;;;6.10;78.30;;;;;;4903205;28;92156;-75
2021/01/21 06:52:35;;;;;;;14.67;8.47;;;6.10;78.50;;;;;;4893396;28;96428;-75
2021/01/21 06:55:03;;;;;;;13.43;8.10;;;6.10;78.20;;;;;;4887734;28;96554;-75
2021/01/21 06:57:35;;;;;;;12.53;7.97;;;6.20;78.20;;;;;;4895937;28;92506;-74
2021/01/21 07:00:06;;;;;;;15.07;9.35;;;6.20;77.60;;;;;;4890846;28;91434;-75
2021/01/21 07:02:42;;;;;;;14.47;8.60;;;6.30;77.00;;;;;;4890556;28;96296;-75
2021/01/21 07:05:13;;;;;;;12.93;7.77;;;6.30;76.80;;;;;;4874341;28;95717;-74
2021/01/21 07:08:00;;;;;;;14.15;8.77;;;6.40;76.80;;;;;;4874156;28;93235;-74
2021/01/21 07:10:33;;;;;;;14.23;8.27;;;6.40;76.50;;;;;;4887084;28;92523;-75
2021/01/21 07:13:19;;;;;;;13.77;8.57;;;6.40;76.20;;;;;;4872930;28;96669;-75
2021/01/21 07:15:50;;;;;;;13.80;9.00;;;6.40;76.30;;;;;;4887310;28;96524;-75
2021/01/21 07:18:24;;;;;;;11.93;7.73;;;6.50;76.10;;;;;;4892199;28;92247;-75
2021/01/21 07:21:09;;;;;;;18.03;10.27;;;6.50;76.20;;;;;;4878048;28;92074;-75
2021/01/21 07:23:44;;;;;;;22.17;9.70;;;6.60;76.00;;;;;;4875951;28;96412;-75
2021/01/21 07:26:28;;;;;;;16.97;9.83;;;6.60;75.90;;;;;;4878283;28;96071;-75
2021/01/21 07:29:11;;;;;;;16.17;10.57;;;6.60;75.70;;;;;;4877049;28;92282;-75
2021/01/21 07:31:52;;;;;;;21.10;11.60;;;6.50;76.40;;;;;;4893058;28;92138;-74
2021/01/21 07:34:51;;;;;;;23.17;11.55;;;6.40;76.00;;;;;;4875083;28;97607;-75
2021/01/21 07:37:44;;;;;;;21.37;12.83;;;6.50;75.50;;;;;;4876111;28;96993;-75
2021/01/21 07:40:11;;;;;;;20.17;12.50;;;6.70;74.70;;;;;;4900693;28;92058;-75
2021/01/21 07:42:37;;;;;;;22.93;13.03;;;6.80;74.30;;;;;;4885367;28;92223;-75
2021/01/21 07:45:14;;;;;;;21.97;11.70;;;7.00;72.90;;;;;;4902824;28;92008;-75
2021/01/21 07:47:47;;;;;;;21.37;11.30;;;6.90;72.60;;;;;;4901923;28;92690;-74
2021/01/21 07:50:21;;;;;;;17.63;11.27;;;7.00;72.20;;;;;;4908727;28;92095;-75
2021/01/21 07:53:16;;;;;;;17.37;11.10;;;7.00;71.70;;;;;;4891197;28;91703;-74
2021/01/21 07:55:43;;;;;;;23.70;12.50;;;7.00;71.30;;;;;;4889752;28;95863;-75
2021/01/21 07:58:35;;;;;;;22.37;13.43;;;7.00;71.20;;;;;;4915065;28;92695;-75
2021/01/21 08:01:11;;;;;;;20.98;11.07;;;7.10;71.20;;;;;;4903354;28;92868;-75
2021/01/21 08:03:46;;;;;;;22.73;11.37;;;7.00;71.10;;;;;;4888837;28;92014;-75
2021/01/21 08:06:12;;;;;;;23.23;12.40;;;7.10;70.70;;;;;;4903554;28;96505;-75
2021/01/21 08:08:39;;;;;;;20.03;11.80;;;6.90;71.40;;;;;;4887956;28;96520;-75
2021/01/21 08:11:14;;;;;;;21.37;11.33;;;7.10;71.30;;;;;;4921474;28;92428;-76
2021/01/21 08:13:40;;;;;;;25.07;13.03;;;7.20;70.70;;;;;;4916121;28;92065;-75
2021/01/21 08:16:06;;;;;;;23.27;12.13;;;7.30;70.20;;;;;;4900836;28;96728;-75
2021/01/21 08:18:34;;;;;;;23.40;12.17;;;7.40;69.60;;;;;;4888874;28;96680;-73
2021/01/21 08:21:00;;;;;;;20.87;12.43;;;7.50;69.00;;;;;;4869089;28;92263;-73
2021/01/21 08:23:29;;;;;;;23.03;12.77;;;7.60;68.80;;;;;;4867966;28;92192;-76
2021/01/21 08:25:55;;;;;;;22.47;13.40;;;7.70;68.40;;;;;;4868013;28;97953;-73
2021/01/21 08:28:24;;;;;;;22.67;12.90;;;7.80;67.90;;;;;;4883119;28;94091;-73
2021/01/21 08:30:50;;;;;;;23.17;13.20;;;7.80;67.40;;;;;;4870255;28;92163;-73
2021/01/21 08:33:21;;;;;;;25.70;13.47;;;7.90;67.40;;;;;;4891753;28;92176;-73
2021/01/21 08:35:57;;;;;;;21.53;12.20;;;7.80;67.60;;;;;;4868273;28;96153;-74
2021/01/21 08:38:26;;;;;;;23.13;11.93;;;7.80;68.10;;;;;;4915898;28;96339;-75
2021/01/21 08:40:53;;;;;;;22.70;13.00;;;7.80;68.10;;;;;;4920538;28;91989;-75
2021/01/21 08:43:22;;;;;;;27.77;16.17;;;7.70;68.00;;;;;;4885751;28;91500;-75
2021/01/21 08:45:48;;;;;;;25.10;14.20;;;7.50;68.60;;;;;;4883743;28;97054;-75
2021/01/21 08:48:34;;;;;;;22.43;13.30;;;7.40;69.20;;;;;;4882980;28;92424;-75
2021/01/21 08:51:01;;;;;;;21.70;13.20;;;7.40;69.80;;;;;;4881643;28;93024;-75
2021/01/21 08:53:29;;;;;;;24.10;13.03;;;7.60;69.20;;;;;;4885976;28;92179;-75
2021/01/21 08:55:56;;;;;;;22.23;12.70;;;7.70;68.70;;;;;;4883433;28;96430;-76
2021/01/21 08:58:30;;;;;;;23.80;12.87;;;7.70;68.40;;;;;;4882726;28;93003;-75
2021/01/21 09:01:03;;;;;;;22.13;12.33;;;7.60;68.60;;;;;;4896984;28;92354;-75
2021/01/21 09:03:40;;;;;;;24.10;14.33;;;7.50;69.40;;;;;;4901989;28;92426;-75
2021/01/21 09:06:09;;;;;;;27.40;14.63;;;7.30;69.90;;;;;;4898501;28;93395;-75
2021/01/21 09:08:56;;;;;;;27.50;15.27;;;7.30;70.30;;;;;;4911215;28;92575;-75
2021/01/21 09:11:38;;;;;;;27.40;15.77;;;7.20;70.80;;;;;;4913811;28;92457;-75
2021/01/21 09:14:05;;;;;;;27.25;14.88;;;7.30;70.60;;;;;;4919891;28;92212;-75
2021/01/21 09:16:51;;;;;;;28.80;14.93;;;7.20;70.60;;;;;;4897880;28;97092;-75
2021/01/21 09:19:38;;;;;;;27.37;14.43;;;7.30;70.40;;;;;;4897229;28;93947;-73
2021/01/21 09:22:06;;;;;;;27.67;16.17;;;7.40;70.30;;;;;;4885623;28;92599;-73
2021/01/21 09:24:33;;;;;;;29.07;15.73;;;7.50;69.70;;;;;;4889478;28;92673;-74
2021/01/21 09:27:15;;;;;;;28.77;17.27;;;7.50;69.50;;;;;;4902981;28;93261;-73
2021/01/21 09:29:48;;;;;;;26.67;16.10;;;7.30;70.10;;;;;;4896215;28;93721;-73
2021/01/21 09:32:18;;;;;;;26.37;15.37;;;7.30;70.50;;;;;;4897780;28;92144;-73
2021/01/21 09:35:17;;;;;;;27.73;15.37;;;7.20;70.70;;;;;;4893708;28;91709;-73
2021/01/21 09:37:45;;;;;;;29.50;15.23;;;7.30;71.00;;;;;;4889049;28;93284;-78
2021/01/21 09:40:13;;;;;;;28.63;15.70;;;7.20;70.90;;;;;;4892561;28;92447;-76
2021/01/21 09:42:39;;;;;;;29.53;16.17;;;7.20;71.20;;;;;;4898841;28;93069;-74
2021/01/21 09:45:07;;;;;;;25.47;15.17;;;7.30;71.60;;;;;;4883151;28;92753;-74
2021/01/21 09:47:33;;;;;;;26.40;14.40;;;7.50;71.20;;;;;;4898408;28;96240;-74
2021/01/21 09:49:59;;;;;;;25.13;14.20;;;7.60;70.70;;;;;;4899417;28;93061;-75
2021/01/21 09:52:25;;;;;;;26.57;13.83;;;7.70;70.40;;;;;;4883656;28;92149;-75
2021/01/21 09:54:51;;;;;;;26.03;15.10;;;7.70;70.30;;;;;;4917686;28;92227;-75
2021/01/21 09:57:17;;;;;;;27.27;14.70;;;7.90;70.00;;;;;;4898715;28;96837;-73
2021/01/21 09:59:43;;;;;;;22.23;13.43;;;7.90;69.80;;;;;;4882971;28;95845;-75
2021/01/21 10:02:09;;;;;;;24.27;13.60;;;7.90;70.00;;;;;;4900233;28;92511;-74
2021/01/21 10:04:38;;;;;;;26.03;14.40;;;7.80;70.50;;;;;;4899497;28;92696;-77
2021/01/21 10:07:04;;;;;;;27.45;14.05;;;8.00;70.30;;;;;;4883229;28;94168;-78
2021/01/21 10:09:31;;;;;;;22.60;12.77;;;8.10;69.90;;;;;;4864303;28;97518;-78
2021/01/21 10:11:57;;;;;;;26.20;14.23;;;8.00;70.00;;;;;;4876408;28;92166;-78
2021/01/21 10:14:23;;;;;;;26.23;13.63;;;8.00;70.70;;;;;;4885177;28;92150;-73
2021/01/21 10:16:48;;;;;;;25.60;14.17;;;8.00;70.50;;;;;;4885652;28;96260;-74
2021/01/21 10:19:14;;;;;;;21.83;13.50;;;8.20;69.70;;;;;;4901109;28;96393;-74
2021/01/21 10:21:40;;;;;;;25.63;14.07;;;8.30;69.80;;;;;;4901379;28;91868;-74
2021/01/21 10:24:06;;;;;;;22.20;13.40;;;8.40;69.40;;;;;;4902259;28;91480;-74
2021/01/21 10:26:32;;;;;;;19.70;11.40;;;8.60;68.70;;;;;;4898706;28;92928;-76
2021/01/21 10:28:58;;;;;;;21.07;11.23;;;8.60;68.20;;;;;;4881206;28;96689;-74
2021/01/21 10:31:24;;;;;;;17.53;9.63;;;8.70;68.00;;;;;;4884007;28;93175;-74
2021/01/21 10:33:50;;;;;;;16.33;8.53;;;8.80;67.00;;;;;;4878617;28;92292;-73
2021/01/21 10:36:16;;;;;;;13.65;8.52;;;8.90;66.90;;;;;;4896930;28;93026;-75
2021/01/21 10:38:42;;;;;;;19.30;10.00;;;8.90;66.40;;;;;;4868501;28;96628;-74
2021/01/21 10:41:09;;;;;;;14.67;7.90;;;9.00;66.90;;;;;;4890466;28;92811;-74
2021/01/21 10:43:35;;;;;;;17.52;8.77;;;9.10;66.30;;;;;;4886876;28;92464;-74
2021/01/21 10:46:01;;;;;;;15.20;8.53;;;9.20;66.20;;;;;;4865540;28;96669;-74
2021/01/21 10:48:27;;;;;;;15.43;9.00;;;9.20;65.90;;;;;;4861947;28;96054;-74
2021/01/21 10:50:53;;;;;;;16.75;10.30;;;9.30;65.60;;;;;;4900095;28;92600;-74
2021/01/21 10:53:19;;;;;;;14.52;9.25;;;9.50;65.30;;;;;;4894250;28;92607;-73
2021/01/21 10:55:46;;;;;;;17.15;11.18;;;9.60;65.20;;;;;;4893026;28;97417;-74
2021/01/21 10:58:13;;;;;;;13.90;8.65;;;9.70;64.70;;;;;;4890063;28;95355;-74
2021/01/21 11:00:40;;;;;;;10.90;7.70;;;9.80;64.20;;;;;;4903194;28;92279;-74
2021/01/21 11:03:06;;;;;;;16.63;9.00;;;9.80;63.80;;;;;;4872556;28;92328;-76
2021/01/21 11:05:32;;;;;;;11.32;7.18;;;9.90;63.50;;;;;;4881582;28;94042;-75
2021/01/21 11:07:58;;;;;;;15.55;7.03;;;9.90;63.30;;;;;;4894175;28;92667;-76
2021/01/21 11:10:24;;;;;;;12.38;7.03;;;9.90;62.90;;;;;;4887357;28;92149;-75
2021/01/21 11:12:51;;;;;;;11.13;6.70;;;9.80;63.40;;;;;;4888808;28;91779;-74
2021/01/21 11:15:17;;;;;;;11.82;6.93;;;9.70;64.00;;;;;;4893428;28;93777;-75
2021/01/21 11:17:47;;;;;;;9.38;6.53;;;9.60;64.30;;;;;;4901961;28;93498;-75
2021/01/21 11:20:13;;;;;;;9.60;6.25;;;9.50;64.60;;;;;;4886529;28;93546;-75
2021/01/21 11:22:40;;;;;;;8.55;6.55;;;9.40;65.10;;;;;;4881744;28;92760;-76
2021/01/21 11:25:08;;;;;;;8.25;5.88;;;9.40;65.10;;;;;;4875057;28;96407;-76
2021/01/21 11:27:35;;;;;;;11.23;7.45;;;9.40;65.20;;;;;;4895179;28;94284;-77
2021/01/21 11:30:05;;;;;;;12.20;7.93;;;9.50;64.90;;;;;;4868722;28;92533;-77
2021/01/21 11:32:31;;;;;;;16.90;8.90;;;9.60;64.80;;;;;;4869612;28;92571;-76
2021/01/21 11:34:57;;;;;;;15.63;8.52;;;9.70;64.50;;;;;;4886083;28;97079;-77
2021/01/21 11:37:23;;;;;;;11.75;7.90;;;9.70;64.30;;;;;;4875806;28;96362;-77
2021/01/21 11:39:49;;;;;;;13.65;7.65;;;9.80;64.40;;;;;;4902396;28;92606;-78
2021/01/21 11:42:15;;;;;;;13.70;7.40;;;9.80;64.70;;;;;;4920845;28;92212;-79
2021/01/21 11:44:41;;;;;;;11.80;6.90;;;9.80;64.40;;;;;;4917041;28;94618;-78
2021/01/21 11:47:07;;;;;;;11.60;6.80;;;9.70;64.10;;;;;;4885781;28;97133;-78
2021/01/21 11:49:32;;;;;;;10.25;6.35;;;9.70;65.00;;;;;;4885169;28;92555;-77
2021/01/21 11:51:58;;;;;;;10.07;6.78;;;9.80;64.90;;;;;;4903635;28;92559;-76
2021/01/21 11:54:27;;;;;;;11.98;7.55;;;9.80;65.40;;;;;;4885940;28;96213;-75
2021/01/21 11:56:53;;;;;;;14.48;8.90;;;9.80;65.80;;;;;;4920223;28;93361;-77
2021/01/21 11:59:19;;;;;;;17.42;7.72;;;9.90;65.60;;;;;;4902700;28;92167;-75
2021/01/21 12:01:45;;;;;;;13.57;7.80;;;10.00;65.00;;;;;;4888989;28;91476;-77
2021/01/21 12:04:11;;;;;;;14.63;8.15;;;10.00;64.70;;;;;;4915534;28;93178;-78
2021/01/21 12:06:37;;;;;;;14.25;8.45;;;10.00;65.20;;;;;;4885739;28;96392;-78
2021/01/21 12:09:04;;;;;;;15.93;9.15;;;10.10;65.00;;;;;;4901924;28;93036;-74
2021/01/21 12:11:31;;;;;;;14.07;8.18;;;10.10;65.20;;;;;;4881709;28;92208;-74
2021/01/21 12:13:57;;;;;;;18.45;8.70;;;10.10;65.20;;;;;;4909033;28;92965;-74
2021/01/21 12:16:23;;;;;;;10.75;7.03;;;10.10;65.70;;;;;;4885692;28;96500;-74
2021/01/21 12:18:50;;;;;;;14.38;6.88;;;10.10;65.60;;;;;;4902255;28;92213;-74
2021/01/21 12:21:16;;;;;;;11.38;6.75;;;10.10;65.70;;;;;;4894899;28;92369;-74
2021/01/21 12:23:42;;;;;;;13.68;7.45;;;10.10;66.00;;;;;;4890692;28;93270;-74
2021/01/21 12:26:08;;;;;;;13.32;6.68;;;10.10;66.10;;;;;;4910292;28;92280;-74
2021/01/21 12:28:34;;;;;;;14.07;6.70;;;10.10;66.30;;;;;;4890147;28;92606;-74
2021/01/21 12:31:01;;;;;;;13.73;9.70;;;10.10;66.80;;;;;;4909351;28;92534;-73
2021/01/21 12:33:27;;;;;;;12.20;7.63;;;10.10;66.80;;;;;;4880563;28;97598;-74
2021/01/21 12:35:53;;;;;;;14.35;8.02;;;10.20;66.90;;;;;;4900071;28;94530;-74
2021/01/21 12:38:19;;;;;;;13.38;7.90;;;10.20;66.60;;;;;;4897192;28;92145;-74
2021/01/21 12:40:45;;;;;;;13.23;7.78;;;10.20;67.00;;;;;;4867276;28;92453;-72
2021/01/21 12:43:11;;;;;;;15.75;7.65;;;10.20;67.10;;;;;;4882657;28;96413;-74
2021/01/21 12:45:40;;;;;;;14.85;8.80;;;10.30;67.00;;;;;;4899492;28;92972;-73
2021/01/21 12:48:07;;;;;;;14.05;7.65;;;10.30;66.40;;;;;;4899220;28;92370;-73
2021/01/21 12:50:34;;;;;;;11.82;7.53;;;10.40;66.10;;;;;;4898802;28;91377;-73
2021/01/21 12:53:00;;;;;;;13.85;7.32;;;10.40;65.20;;;;;;4899660;28;93873;-73
2021/01/21 12:55:26;;;;;;;10.90;6.68;;;10.40;65.00;;;;;;4899076;28;92621;-73
2021/01/21 12:57:51;;;;;;;11.20;6.40;;;10.30;64.20;;;;;;4892429;28;93065;-73
2021/01/21 13:00:18;;;;;;;13.10;6.93;;;10.20;64.20;;;;;;4899385;28;91967;-73
2021/01/21 13:02:44;;;;;;;13.40;7.07;;;10.20;63.40;;;;;;4882305;28;96975;-74